Saluda Terrace, South Carolina
Current Conditions -  °F | °C
As of 12:56 AM on Thursday 23 Oct 2014 (Local Time) from KCAE Reporting Station
Clear Clear  
Wind Chill: 53°   Ceiling: Unl
Heat Index: 53°   Visibility: 10mi
Dew Point: 40°   Wind: 3mph
Humidity: 61%   Direction: 340°NNW
Pressure: 30.1"   Gusts: NA
Location:  33.9973°N, 81.0998°W
Report Text: KCAE 230456Z 34003KT 10SM CLR 12/04 A3010 RMK AO2 SLP192 T01170044 402110072
Loading
Personal Weather Stations






























Interactive Weather Map
Tropical Storm Tracking
New forecast layout! Learn more

10-Day Weather Forecast

Advertisements
Track Severe Weather on mobile